Flight Track Log - Related Links

Times and Time Zones

All times are in EDT time to prevent confusion due to time zone crossing. See the UAL1108 flight status page for this flight to view local times or setup timezone preferences in your user account.

Time Position Orientation Groundspeed Altitude Reporting Facility
EDT Latitude Longitude Course Direction KTS MPH feet Rate Location/Type
Wed 08:38:00 PM 29.9470 -95.3277 179° South 180 207 1,400  Level FlightAware ADS-B
Wed 08:38:03 PM 29.9454 -95.3245 120° Southeast 187 215 1,500 1,800 Climbing FlightAware ADS-B
Wed 08:38:10 PM 29.9431 -95.3187 115° Southeast 195 224 1,700 1,875 Climbing FlightAware ADS-B
Wed 08:38:19 PM 29.9408 -95.3093 106° East 200 230 2,000 1,846 Climbing FlightAware ADS-B
Wed 08:38:23 PM 29.9401 -95.3054 102° East 206 237 2,100 2,526 Climbing FlightAware ADS-B
Wed 08:38:38 PM 29.9374 -95.2881 100° East 214 246 2,800 2,516 Climbing FlightAware ADS-B
Wed 08:38:54 PM 29.9348 -95.2699 99° East 225 259 3,400 1,909 Climbing FlightAware ADS-B
Wed 08:39:00 PM 29.9338 -95.2628 99° East 239 275 3,500 1,200 Climbing FlightAware ADS-B
Wed 08:39:04 PM 29.9333 -95.2571 96° East 247 284 3,600 2,250 Climbing FlightAware ADS-B
Wed 08:39:08 PM 29.9331 -95.2514 92° East 253 291 3,800 1,200 Climbing FlightAware ADS-B
Wed 08:39:24 PM 29.9329 -95.2295 91° East 265 305 4,000 429 Climbing FlightAware ADS-B
Wed 08:39:36 PM 29.9329 -95.2116 90° East 266 306 4,000 -214 Level FlightAware ADS-B
Wed 08:39:52 PM 29.9330 -95.1894 90° East 267 307 3,900 -194 Descending FlightAware ADS-B
Wed 08:40:07 PM 29.9330 -95.1674 90° East 266 306 3,900 774 Level FlightAware ADS-B
Wed 08:40:23 PM 29.9331 -95.1459 90° East 266 306 4,300 2,143 Climbing FlightAware ADS-B
Wed 08:40:35 PM 29.9332 -95.1277 90° East 268 308 4,900 2,700 Climbing FlightAware ADS-B
Wed 08:40:43 PM 29.9328 -95.1170 92° East 271 312 5,200 2,727 Climbing FlightAware ADS-B
Wed 08:40:46 PM 29.9323 -95.1122 97° East 270 311 5,400 3,333 Climbing FlightAware ADS-B
Wed 08:40:52 PM 29.9311 -95.1036 99° East 270 311 5,700 2,769 Climbing FlightAware ADS-B
Wed 08:40:59 PM 29.9292 -95.0945 104° East 271 312 6,000 3,273 Climbing FlightAware ADS-B
Wed 08:41:03 PM 29.9277 -95.0886 106° East 268 308 6,300 3,200 Climbing FlightAware ADS-B
Wed 08:41:14 PM 29.9235 -95.0742 109° East 267 307 6,800 2,769 Climbing FlightAware ADS-B
Wed 08:41:29 PM 29.9176 -95.0535 108° East 275 316 7,500 2,600 Climbing FlightAware ADS-B
Wed 08:41:44 PM 29.9118 -95.0314 107° East 284 327 8,100 2,600 Climbing FlightAware ADS-B
Wed 08:41:59 PM 29.9060 -95.0090 107° East 291 335 8,800 2,516 Climbing FlightAware ADS-B
Wed 08:42:15 PM 29.8999 -94.9857 107° East 298 343 9,400 2,323 Climbing FlightAware ADS-B
Wed 08:42:30 PM 29.8933 -94.9620 108° East 308 354 10,000 1,867 Climbing FlightAware ADS-B
Wed 08:43:00 PM 29.8797 -94.9129 108° East 336 387 10,800 1,869 Climbing FlightAware ADS-B
Wed 08:43:31 PM 29.8647 -94.8597 108° East 352 405 11,900 2,323 Climbing FlightAware ADS-B
Wed 08:44:02 PM 29.8490 -94.8023 107° East 364 419 13,200 2,656 Climbing FlightAware ADS-B
Wed 08:44:32 PM 29.8332 -94.7463 108° East 370 426 14,600 2,459 Climbing FlightAware ADS-B
Wed 08:45:03 PM 29.8168 -94.6869 108° East 380 437 15,700 2,129 Climbing FlightAware ADS-B
Wed 08:45:34 PM 29.8003 -94.6268 108° East 393 452 16,800 2,164 Climbing FlightAware ADS-B
Wed 08:46:04 PM 29.7832 -94.5654 108° East 401 461 17,900 2,164 Climbing FlightAware ADS-B
Wed 08:46:35 PM 29.7659 -94.5032 108° East 409 471 19,000 2,262 Climbing FlightAware ADS-B
Wed 08:47:05 PM 29.7483 -94.4401 108° East 411 473 20,200 2,361 Climbing FlightAware ADS-B
Wed 08:47:36 PM 29.7305 -94.3766 108° East 414 476 21,400 2,182 Climbing FlightAware ADS-B
Wed 08:47:49 PM 29.7232 -94.3471 106° East 416 479 21,800 1,680 Climbing FlightAware ADS-B
Wed 08:48:01 PM 29.7187 -94.3215 101° East 419 482 22,100 1,571 Climbing FlightAware ADS-B
Wed 08:48:31 PM 29.7111 -94.2543 97° East 428 493 22,900 1,600 Climbing FlightAware ADS-B
Wed 08:49:01 PM 29.7034 -94.1855 97° East 438 504 23,700 1,574 Climbing FlightAware ADS-B
Wed 08:49:32 PM 29.6954 -94.1143 97° East 445 512 24,500 1,579 Climbing FlightAware ADS-B
Wed 08:49:58 PM 29.6886 -94.0532 97° East 450 518 25,200 1,610 Climbing FlightAware ADS-B
Wed 08:50:13 PM 29.6866 -94.0164 94° East 451 519 25,600 1,565 Climbing FlightAware ADS-B
Wed 08:50:44 PM 29.6860 -93.9418 91° East 456 525 26,400 1,452 Climbing FlightAware ADS-B
Wed 08:51:15 PM 29.6854 -93.8674 91° East 460 529 27,100 1,377 Climbing FlightAware ADS-B
Wed 08:51:45 PM 29.6847 -93.7935 91° East 465 535 27,800 1,279 Climbing FlightAware ADS-B
Wed 08:52:16 PM 29.6839 -93.7170 91° East 472 543 28,400 1,180 Climbing FlightAware ADS-B
Wed 08:52:46 PM 29.6831 -93.6397 91° East 477 549 29,000 1,143 Climbing FlightAware ADS-B
Wed 08:53:19 PM 29.6823 -93.5557 91° East 484 557 29,600 1,031 Climbing FlightAware ADS-B
Wed 08:53:50 PM 29.6813 -93.4762 91° East 488 562 30,100 1,082 Climbing FlightAware ADS-B
Wed 08:54:20 PM 29.6803 -93.3968 91° East 492 566 30,700 1,143 Climbing FlightAware ADS-B
Wed 08:54:53 PM 29.6791 -93.3112 91° East 495 570 31,300 1,031 Climbing FlightAware ADS-B
Wed 08:55:24 PM 29.6780 -93.2308 91° East 499 574 31,800 1,031 Climbing FlightAware ADS-B
Wed 08:55:57 PM 29.6767 -93.1424 91° East 499 574 32,400 1,048 Climbing FlightAware ADS-B
Wed 08:56:27 PM 29.6755 -93.0625 91° East 500 575 32,900 1,082 Climbing FlightAware ADS-B
Wed 08:56:58 PM 29.6743 -92.9800 91° East 500 575 33,500 1,377 Climbing FlightAware ADS-B
Wed 08:57:28 PM 29.6730 -92.9010 91° East 495 570 34,300 968 Climbing FlightAware ADS-B
Wed 08:58:31 PM 29.6702 -92.7388 91° East 490 564 35,000 433 Climbing FlightAware ADS-B
Wed 08:59:05 PM 29.6686 -92.6485 91° East 489 563 35,000  Level FlightAware ADS-B
Wed 08:59:51 PM 29.6664 -92.5307 91° East 489 563 35,000  Level FlightAware ADS-B
Wed 09:01:06 PM 29.6553 -92.3361 94° East 494 568 35,000  Level FlightAware ADS-B
Wed 09:01:40 PM 29.6377 -92.2493 103° East 496 571 35,000  Level FlightAware ADS-B
Wed 09:02:31 PM 29.6105 -92.1180 103° East 497 572 35,000  Level FlightAware ADS-B
Wed 09:03:03 PM 29.5935 -92.0365 103° East 496 571 35,000  Level FlightAware ADS-B
Wed 09:05:05 PM 29.5283 -91.7251 103° East 497 572 35,000  Level FlightAware ADS-B
Wed 09:05:37 PM 29.5110 -91.6429 104° East 497 572 35,000  Level FlightAware ADS-B
Wed 09:06:07 PM 29.4947 -91.5661 104° East 498 573 35,000 -75 Level FlightAware ADS-B
Wed 09:06:57 PM 29.4717 -91.4606 104° East 497 572 34,900  Descending Houston Center
Wed 09:07:58 PM 29.4400 -91.3083 103° East 495 570 35,000 49 Climbing Houston Center
Wed 09:09:00 PM 29.4064 -91.1544 104° East 499 574 35,000 145 Level Houston Center
Wed 09:10:02 PM 29.3733 -91.0006 104° East 500 575 35,300 585 Climbing Houston Center
Wed 09:11:03 PM 29.3319 -90.8122 104° East 509 586 36,200 787 Climbing Houston Center
Wed 09:12:04 PM 29.2975 -90.6572 104° East 506 582 36,900 341 Climbing Houston Center
Wed 09:13:06 PM 29.2639 -90.5025 104° East 504 580 36,900  Level Houston Center
Wed 09:14:07 PM 29.2289 -90.3489 105° East 502 578 36,900  Level Houston Center
Wed 09:15:09 PM 29.1961 -90.1961 104° East 499 574 36,900 49 Level Houston Center
Wed 09:16:10 PM 29.1544 -90.0469 108° East 497 572 37,000 49 Climbing Houston Center
Wed 09:17:12 PM 29.0983 -89.9006 114° Southeast 504 580 37,000  Level Houston Center
Wed 09:18:13 PM 29.0333 -89.7269 113° Southeast 500 575 37,000  Level Houston Center
Wed 09:19:14 PM 28.9789 -89.5800 113° Southeast 502 578 37,000  Level Houston Center
Wed 09:20:16 PM 28.9242 -89.4333 113° Southeast 505 581 37,000 -49 Level Houston Center
Wed 09:21:17 PM 28.8681 -89.2889 114° Southeast 501 577 36,900  Descending Houston Center
Wed 09:22:19 PM 28.8142 -89.1447 113° Southeast 497 572 37,000  Climbing Houston Center
Wed 09:23:20 PM 28.7592 -89.0028 114° Southeast 493 567 36,900 -49 Descending Houston Center
Wed 09:24:21 PM 28.7056 -88.8628 114° Southeast 485 558 36,900  Level Houston Center
Wed 09:25:23 PM 28.6514 -88.7225 114° Southeast 485 558 36,900 49 Level Houston Center
Wed 09:26:24 PM 28.5881 -88.5578 114° Southeast 475 547 37,000 49 Climbing Houston Center
Wed 09:27:25 PM 28.5344 -88.4189 114° Southeast 479 551 37,000 -49 Level Houston Center
Wed 09:28:27 PM 28.4806 -88.2819 114° Southeast 478 550 36,900  Descending Houston Center
Wed 09:29:28 PM 28.4261 -88.1458 114° Southeast 475 547 37,000 49 Climbing Houston Center
Wed 09:30:29 PM 28.3747 -88.0092 113° Southeast 478 550 37,000 -49 Level Houston Center
Wed 09:31:30 PM 28.3353 -87.8683 108° East 471 542 36,900  Descending Houston Center
Wed 09:32:32 PM 28.2944 -87.7275 108° East 470 541 37,000 49 Climbing Houston Center
Wed 09:33:33 PM 28.2544 -87.5894 108° East 466 536 37,000 -49 Level Houston Center
Wed 09:34:34 PM 28.2058 -87.4225 108° East 464 534 36,900  Descending Houston Center
Wed 09:35:38 PM 28.1628 -87.2806 109° East 448 516 37,000 48 Climbing Jacksonville Center
Wed 09:36:38 PM 28.1236 -87.1400 108° East 457 526 37,000  Level Jacksonville Center
Wed 09:37:38 PM 28.0819 -87.0089 110° East 455 524 37,000  Level Jacksonville Center
Wed 09:43:02 PM 27.8210 -86.2610 110° East 469 540 37,000  Level FlightAware ADS-B
Wed 09:43:47 PM 27.7920 -86.1740 111° Southeast 469 540 37,000  Level FlightAware ADS-B
Wed 09:44:27 PM 27.7540 -86.0720 113° Southeast 468 539 37,000  Level FlightAware ADS-B
Wed 09:45:07 PM 27.7250 -85.9850 111° Southeast 468 539 37,000  Level FlightAware ADS-B
Wed 09:46:07 PM 27.6770 -85.8470 111° Southeast 467 537 37,000  Level FlightAware ADS-B
Wed 09:46:47 PM 27.6520 -85.7700 110° East 467 537 37,000  Level FlightAware ADS-B
Wed 09:47:32 PM 27.6040 -85.6460 114° Southeast 470 541 37,000  Level FlightAware ADS-B
Wed 09:48:12 PM 27.5720 -85.5580 112° Southeast 467 537 37,000  Level FlightAware ADS-B
Wed 09:49:07 PM 27.5270 -85.4310 112° Southeast 471 542 37,000  Level FlightAware ADS-B
Wed 09:50:02 PM 27.4880 -85.3220 112° Southeast 471 542 37,000  Level FlightAware ADS-B
Wed 09:50:42 PM 27.4620 -85.2440 111° Southeast 471 542 37,000  Level FlightAware ADS-B
Wed 09:51:42 PM 27.4040 -85.0890 113° Southeast 471 542 37,000  Level FlightAware ADS-B
Wed 09:52:22 PM 27.3660 -84.9870 113° Southeast 470 541 37,000  Level FlightAware ADS-B
Wed 09:53:07 PM 27.3310 -84.8890 112° Southeast 468 539 37,000  Level FlightAware ADS-B
Wed 09:54:57 PM 27.2430 -84.6470 112° Southeast 465 535 37,000  Level FlightAware ADS-B
Wed 09:56:07 PM 27.1860 -84.4930 113° Southeast 464 534 37,000  Level FlightAware ADS-B
Wed 09:57:12 PM 27.1340 -84.3520 112° Southeast 465 535 37,000  Level FlightAware ADS-B
Wed 09:57:57 PM 27.1010 -84.2580 112° Southeast 465 535 37,000  Level FlightAware ADS-B
Wed 09:58:42 PM 27.0600 -84.1520 113° Southeast 466 536 37,000  Level FlightAware ADS-B
Wed 09:59:47 PM 27.0050 -84.0010 112° Southeast 467 537 37,000  Level FlightAware ADS-B
Wed 10:01:02 PM 27.0390 -83.8160 78° East 461 531 37,000  Level FlightAware ADS-B
Wed 10:01:42 PM 27.0670 -83.7390 68° East 461 531 37,000  Level FlightAware ADS-B
Wed 10:01:57 PM 27.0550 -83.6940 107° East 462 532 37,000  Level FlightAware ADS-B
Wed 10:02:42 PM 27.0130 -83.5930 115° Southeast 462 532 37,000  Level FlightAware ADS-B
Wed 10:03:22 PM 26.9780 -83.5070 115° Southeast 463 533 37,000  Level FlightAware ADS-B
Wed 10:04:47 PM 26.9010 -83.3230 115° Southeast 464 534 37,000  Level FlightAware ADS-B
Wed 10:05:27 PM 26.8650 -83.2370 115° Southeast 465 535 37,000  Level FlightAware ADS-B
Wed 10:07:07 PM 26.7780 -83.0280 115° Southeast 465 535 37,000  Level FlightAware ADS-B
Wed 10:07:47 PM 26.7470 -82.9540 115° Southeast 465 535 37,000  Level FlightAware ADS-B
Wed 10:09:27 PM 26.6480 -82.7200 115° Southeast 467 537 37,000  Level FlightAware ADS-B
Wed 10:10:02 PM 26.6160 -82.6440 115° Southeast 467 537 37,000  Level FlightAware ADS-B
Wed 10:11:22 PM 26.5420 -82.4690 115° Southeast 465 535 37,000  Level FlightAware ADS-B
Wed 10:11:57 PM 26.5130 -82.3960 114° Southeast 465 535 37,000  Level FlightAware ADS-B
Wed 10:12:42 PM 26.4670 -82.2940 117° Southeast 463 533 37,000 -941 Level FlightAware ADS-B
Wed 10:15:02 PM 26.3370 -81.9900 115° Southeast 464 534 34,100 -1,686 Descending FlightAware ADS-B
Wed 10:16:12 PM 26.2720 -81.8420 116° Southeast 465 535 31,100 -2,492 Descending FlightAware ADS-B
Wed 10:17:12 PM 26.2130 -81.7050 116° Southeast 467 537 28,700 -1,500 Descending FlightAware ADS-B
Wed 10:17:52 PM 26.1810 -81.6300 115° Southeast 454 522 28,600 -2,047 Descending FlightAware ADS-B
Wed 10:18:37 PM 26.1400 -81.5350 116° Southeast 437 503 25,800 -2,713 Descending FlightAware ADS-B
Wed 10:19:47 PM 26.0780 -81.3940 116° Southeast 418 481 23,400 -2,018 Descending FlightAware ADS-B
Wed 10:20:27 PM 26.0440 -81.3160 116° Southeast 414 476 22,100 -1,976 Descending FlightAware ADS-B
Wed 10:21:12 PM 26.0070 -81.2320 116° Southeast 405 466 20,600 -1,950 Descending FlightAware ADS-B
Wed 10:21:47 PM 25.9780 -81.1660 116° Southeast 395 455 19,500 -1,835 Descending FlightAware ADS-B
Wed 10:22:37 PM 25.9390 -81.0760 116° Southeast 387 445 18,000 -2,000 Descending FlightAware ADS-B
Wed 10:23:17 PM 25.9070 -81.0030 116° Southeast 385 443 16,500 -1,650 Descending FlightAware ADS-B
Wed 10:23:57 PM 25.8820 -80.9310 111° Southeast 380 437 15,800 -525 Descending FlightAware ADS-B
Wed 10:24:37 PM 25.8770 -80.8510 94° East 378 435 15,800  Level FlightAware ADS-B
Wed 10:25:22 PM 25.8720 -80.7660 94° East 379 436 15,800  Level FlightAware ADS-B
Wed 10:26:02 PM 25.8670 -80.6920 94° East 380 437 15,800 -1,129 Level FlightAware ADS-B
Wed 10:26:47 PM 25.8610 -80.5990 94° East 380 437 14,200 -1,906 Descending FlightAware ADS-B
Wed 10:27:27 PM 25.8570 -80.5210 93° East 370 426 13,100 -1,642 Descending FlightAware ADS-B
Wed 10:28:22 PM 25.8620 -80.4160 87° East 356 410 11,600 -1,440 Descending FlightAware ADS-B
Wed 10:29:07 PM 25.8820 -80.3380 74° East 338 389 10,700 -1,200 Descending FlightAware ADS-B
Wed 10:29:47 PM 25.8990 -80.2730 74° East 312 359 9,900 -1,309 Descending FlightAware ADS-B
Wed 10:30:02 PM 25.9020 -80.2520 81° East 308 354 9,500 -1,600 Descending FlightAware ADS-B
Wed 10:30:32 PM 25.9060 -80.2050 85° East 303 349 8,700 -1,636 Descending FlightAware ADS-B
Wed 10:30:57 PM 25.9100 -80.1640 84° East 296 341 8,000 -1,527 Descending FlightAware ADS-B
Wed 10:31:27 PM 25.9140 -80.1220 84° East 290 334 7,300 -1,000 Descending FlightAware ADS-B
Wed 10:31:57 PM 25.9180 -80.0780 84° East 271 312 7,000 -545 Descending FlightAware ADS-B
Wed 10:32:22 PM 25.9210 -80.0450 84° East 256 295 6,800 -545 Descending FlightAware ADS-B
Wed 10:32:52 PM 25.9250 -80.0070 83° East 245 282 6,500 -750 Descending FlightAware ADS-B
Wed 10:33:02 PM 25.9270 -79.9940 80° East 242 278 6,300 -1,050 Descending FlightAware ADS-B
Wed 10:33:32 PM 25.9310 -79.9570 83° East 237 273 5,800 -667 Descending FlightAware ADS-B
Wed 10:33:47 PM 25.9320 -79.9400 86° East 232 267 5,800 -533 Level FlightAware ADS-B
Wed 10:34:17 PM 25.9260 -79.9070 101° East 225 259 5,400 -840 Descending FlightAware ADS-B
Wed 10:34:37 PM 25.9080 -79.8980 156° South 205 236 5,100 -1,050 Descending FlightAware ADS-B
Wed 10:34:57 PM 25.8910 -79.9060 203° Southwest 205 236 4,700 -1,371 Descending FlightAware ADS-B
Wed 10:35:12 PM 25.8840 -79.9190 239° Southwest 208 239 4,300 -1,350 Descending FlightAware ADS-B
Wed 10:35:37 PM 25.8740 -79.9420 244° Southwest 208 239 3,800 -1,091 Descending FlightAware ADS-B
Wed 10:36:07 PM 25.8610 -79.9720 244° Southwest 206 237 3,300 -1,000 Descending FlightAware ADS-B
Wed 10:36:37 PM 25.8480 -80.0010 244° Southwest 204 235 2,800 -545 Descending FlightAware ADS-B
Wed 10:37:02 PM 25.8370 -80.0240 242° Southwest 203 234 2,800  Level FlightAware ADS-B
Wed 10:37:27 PM 25.8270 -80.0470 244° Southwest 203 234 2,800  Level FlightAware ADS-B
Wed 10:37:57 PM 25.8140 -80.0760 244° Southwest 205 236 2,800 -100 Level FlightAware ADS-B
Wed 10:38:27 PM 25.8080 -80.1050 257° West 200 230 2,700 -600 Descending FlightAware ADS-B
Wed 10:38:57 PM 25.8070 -80.1340 268° West 190 219 2,200 -1,091 Descending FlightAware ADS-B
Wed 10:39:22 PM 25.8070 -80.1590 270° West 178 205 1,700 -1,091 Descending FlightAware ADS-B
Wed 10:39:52 PM 25.8060 -80.1840 267° West 158 182 1,200 -873 Descending FlightAware ADS-B
Wed 10:40:17 PM 25.8050 -80.2040 267° West 145 167 900 -655 Descending FlightAware ADS-B
Wed 10:40:47 PM 25.8040 -80.2260 267° West 148 170 600 -655 Descending FlightAware ADS-B
Wed 10:41:12 PM 25.8030 -80.2450 267° West 150 173 300 -720 Descending FlightAware ADS-B
Wed 10:41:32 PM 25.8020 -80.2600 266° West 149 171 -900 Descending FlightAware ADS-B
Wed 10:41:57 PM 25.8020 -80.2780 270° West 144 166  Level FlightAware ADS-B

Login

Don't have an account? Register now (free) for customized features, flight alerts, and more!